Airfield :
LOGIN :

Register | Disclaimer

   EN    FR    IT 

 










Legend :    VFR   Marginal VFR   IFR   Intensive IFR   Very Intensive IFR
Visi :
Ceiling :
>= 8 km
>= 3000ft
5 to 8 km
1000 to 3000 ft
1500m to 5 km
500 to 1000 ft
800 to 1500m
200 to 500 ft
< 800m
< 200 ft
Symbols :   Thunderstorms  Fog  Heavy snow  Heavy precipitations  Wind > 20 kt
SIGMETs :     Misc.  Thunderstorms  Icing  Turbulence  Mountain Waves  Volcanic Ashes







- Airport Elevation : 147 ft
- IATA code : DUS


EDDL - Düsseldorf Int.

CURRENT METAR :
  • 150120Z 10005KT 070V130 9999 SCT037 BKN040 01/M05 Q1026 NOSIG

EXPIRED METARs :
  • 150050Z 12006KT 090V150 9999 OVC038 01/M06 Q1026 NOSIG
  • 150020Z 12007KT 9999 OVC039 01/M06 Q1025 NOSIG
  • 142350Z 13009KT 9999 OVC040 01/M06 Q1025 NOSIG
  • 142320Z 11006KT 9999 OVC041 01/M06 Q1025 NOSIG
  • 142250Z 10005KT 9999 OVC042 01/M06 Q1025 NOSIG

TAF TAF EDDL
Valid from the 15 at 00:00 until the 16 at 06:00 UTC


142300Z 1500/1606 10005KT 9999 BKN030
TEMPO 1500/1506 VRB03KT
BECMG 1509/1512 14010KT
BECMG 1518/1521 14015G25KT
TEMPO 1602/1606 1500 SN BKN005
PROB30
TEMPO 1602/1604 -FZRA
No reported NOTAMs for that airfield.



MET'MAP, your aeronautical weather chart ! - Copyright ORBIFLY December 2007 - Disclaimer

ORBIFLY MET'MAP TEAM :

Programming & Development : Alexandra Zaïnal
Concept & Development : Baudouin d'Aumeries
Co-Development & Prog : Marc-Olivier Méhu
Technical & hardware support : Manuel Goepfert

Contact : metmap@orbifly.com




SOURCES & CREDITS :

   NOAA